sensor_id;sensor_type;location;lat;lon;timestamp;pressure;altitude;pressure_sealevel;temperature;humidity
86576;BME280;77216;53.732;9.462;2024-03-23T00:54:22;100947.97;;;7.93;73.03
86576;BME280;77216;53.732;9.462;2024-03-23T00:56:47;100941.84;;;7.93;73.18
86576;BME280;77216;53.732;9.462;2024-03-23T00:59:14;100947.53;;;7.88;73.18
86576;BME280;77216;53.732;9.462;2024-03-23T01:01:41;100948.38;;;7.89;72.93
86576;BME280;77216;53.732;9.462;2024-03-23T01:04:06;100952.91;;;7.77;73.45
86576;BME280;77216;53.732;9.462;2024-03-23T01:06:34;100946.63;;;7.78;73.57
86576;BME280;77216;53.732;9.462;2024-03-23T01:09:00;100930.50;;;7.81;73.59
86576;BME280;77216;53.732;9.462;2024-03-23T01:11:27;100926.09;;;7.82;73.76
86576;BME280;77216;53.732;9.462;2024-03-23T01:13:54;100926.31;;;7.79;73.62
86576;BME280;77216;53.732;9.462;2024-03-23T01:16:22;100922.03;;;7.78;73.45
86576;BME280;77216;53.732;9.462;2024-03-23T01:18:47;100918.41;;;7.79;73.42
86576;BME280;77216;53.732;9.462;2024-03-23T01:21:13;100908.53;;;7.81;73.38
86576;BME280;77216;53.732;9.462;2024-03-23T01:23:40;100896.44;;;7.78;73.54
86576;BME280;77216;53.732;9.462;2024-03-23T01:26:07;100898.97;;;7.80;73.53
86576;BME280;77216;53.732;9.462;2024-03-23T01:28:33;100903.66;;;7.76;73.69
86576;BME280;77216;53.732;9.462;2024-03-23T01:31:00;100908.94;;;7.76;73.69
86576;BME280;77216;53.732;9.462;2024-03-23T01:33:26;100911.72;;;7.74;73.90
86576;BME280;77216;53.732;9.462;2024-03-23T01:35:52;100898.25;;;7.78;73.71
86576;BME280;77216;53.732;9.462;2024-03-23T01:38:17;100891.16;;;7.78;73.70
86576;BME280;77216;53.732;9.462;2024-03-23T01:40:43;100885.31;;;7.74;73.96
86576;BME280;77216;53.732;9.462;2024-03-23T01:43:09;100886.13;;;7.75;74.05
86576;BME280;77216;53.732;9.462;2024-03-23T01:45:35;100882.28;;;7.79;73.78
86576;BME280;77216;53.732;9.462;2024-03-23T01:48:02;100877.38;;;7.74;74.02
86576;BME280;77216;53.732;9.462;2024-03-23T01:50:28;100878.91;;;7.77;73.90
86576;BME280;77216;53.732;9.462;2024-03-23T01:52:58;100877.38;;;7.74;73.92
86576;BME280;77216;53.732;9.462;2024-03-23T01:55:26;100878.34;;;7.73;73.84
86576;BME280;77216;53.732;9.462;2024-03-23T01:57:53;100868.34;;;7.77;73.86
86576;BME280;77216;53.732;9.462;2024-03-23T02:00:19;100864.41;;;7.71;74.15
86576;BME280;77216;53.732;9.462;2024-03-23T02:02:45;100862.03;;;7.68;74.18
86576;BME280;77216;53.732;9.462;2024-03-23T02:05:20;100861.34;;;7.66;74.44
86576;BME280;77216;53.732;9.462;2024-03-23T02:07:47;100844.53;;;7.67;74.35
86576;BME280;77216;53.732;9.462;2024-03-23T02:10:14;100853.00;;;7.71;73.90
86576;BME280;77216;53.732;9.462;2024-03-23T02:12:40;100853.00;;;7.71;74.15
86576;BME280;77216;53.732;9.462;2024-03-23T02:15:06;100851.09;;;7.73;74.01
86576;BME280;77216;53.732;9.462;2024-03-23T02:17:34;100845.38;;;7.68;74.31
86576;BME280;77216;53.732;9.462;2024-03-23T02:20:02;100844.66;;;7.66;74.17
86576;BME280;77216;53.732;9.462;2024-03-23T02:22:39;100842.00;;;7.66;74.02
86576;BME280;77216;53.732;9.462;2024-03-23T02:25:06;100836.88;;;7.64;74.06
86576;BME280;77216;53.732;9.462;2024-03-23T02:27:32;100839.38;;;7.66;74.12
86576;BME280;77216;53.732;9.462;2024-03-23T02:29:58;100832.16;;;7.68;73.77
86576;BME280;77216;53.732;9.462;2024-03-23T02:32:24;100840.34;;;7.65;74.06
86576;BME280;77216;53.732;9.462;2024-03-23T02:34:52;100835.34;;;7.62;73.96
86576;BME280;77216;53.732;9.462;2024-03-23T02:37:18;100834.75;;;7.58;74.09
86576;BME280;77216;53.732;9.462;2024-03-23T02:39:44;100828.06;;;7.54;74.19
86576;BME280;77216;53.732;9.462;2024-03-23T02:42:09;100825.56;;;7.52;74.26
86576;BME280;77216;53.732;9.462;2024-03-23T02:44:35;100829.16;;;7.51;74.38
86576;BME280;77216;53.732;9.462;2024-03-23T02:47:01;100826.78;;;7.48;74.39
86576;BME280;77216;53.732;9.462;2024-03-23T02:49:27;100814.97;;;7.43;74.83
86576;BME280;77216;53.732;9.462;2024-03-23T02:51:53;100810.06;;;7.38;74.83
86576;BME280;77216;53.732;9.462;2024-03-23T02:54:21;100798.69;;;7.38;74.89
86576;BME280;77216;53.732;9.462;2024-03-23T02:56:47;100791.84;;;7.35;74.89
86576;BME280;77216;53.732;9.462;2024-03-23T02:59:12;100784.50;;;7.39;74.61
86576;BME280;77216;53.732;9.462;2024-03-23T03:01:38;100784.63;;;7.37;74.65
86576;BME280;77216;53.732;9.462;2024-03-23T03:04:04;100789.22;;;7.35;74.63
86576;BME280;77216;53.732;9.462;2024-03-23T03:06:30;100787.78;;;7.31;75.02
86576;BME280;77216;53.732;9.462;2024-03-23T03:08:56;100791.25;;;7.31;75.02
86576;BME280;77216;53.732;9.462;2024-03-23T03:11:21;100789.22;;;7.35;74.75
86576;BME280;77216;53.732;9.462;2024-03-23T03:13:47;100774.47;;;7.32;75.10
86576;BME280;77216;53.732;9.462;2024-03-23T03:16:12;100776.13;;;7.33;74.84
86576;BME280;77216;53.732;9.462;2024-03-23T03:18:38;100765.56;;;7.33;74.80
86576;BME280;77216;53.732;9.462;2024-03-23T03:21:05;100764.31;;;7.28;74.85
86576;BME280;77216;53.732;9.462;2024-03-23T03:23:34;100762.34;;;7.20;75.15
86576;BME280;77216;53.732;9.462;2024-03-23T03:26:00;100764.00;;;7.21;75.00
86576;BME280;77216;53.732;9.462;2024-03-23T03:28:26;100761.34;;;7.21;75.24
86576;BME280;77216;53.732;9.462;2024-03-23T03:30:56;100754.13;;;7.23;74.89
86576;BME280;77216;53.732;9.462;2024-03-23T03:33:21;100757.34;;;7.27;75.00
86576;BME280;77216;53.732;9.462;2024-03-23T03:35:47;100748.03;;;7.23;75.20
86576;BME280;77216;53.732;9.462;2024-03-23T03:38:12;100742.88;;;7.21;75.16
86576;BME280;77216;53.732;9.462;2024-03-23T03:40:44;100737.31;;;7.24;75.02
86576;BME280;77216;53.732;9.462;2024-03-23T03:43:13;100737.75;;;7.20;74.90
86576;BME280;77216;53.732;9.462;2024-03-23T03:45:39;100735.78;;;7.22;75.00
86576;BME280;77216;53.732;9.462;2024-03-23T03:48:06;100730.38;;;7.23;74.80
86576;BME280;77216;53.732;9.462;2024-03-23T03:50:32;100727.75;;;7.23;74.95
86576;BME280;77216;53.732;9.462;2024-03-23T03:52:58;100728.00;;;7.20;75.07
86576;BME280;77216;53.732;9.462;2024-03-23T03:55:24;100724.53;;;7.20;74.80
86576;BME280;77216;53.732;9.462;2024-03-23T03:57:49;100714.81;;;7.20;74.82
86576;BME280;77216;53.732;9.462;2024-03-23T04:00:15;100722.72;;;7.20;74.86
86576;BME280;77216;53.732;9.462;2024-03-23T04:02:41;100717.97;;;7.14;74.90
86576;BME280;77216;53.732;9.462;2024-03-23T04:05:07;100715.47;;;7.13;74.96
86576;BME280;77216;53.732;9.462;2024-03-23T04:07:33;100725.78;;;7.16;74.97
86576;BME280;77216;53.732;9.462;2024-03-23T04:09:59;100718.78;;;7.05;75.44
86576;BME280;77216;53.732;9.462;2024-03-23T04:12:24;100715.28;;;7.04;75.08
86576;BME280;77216;53.732;9.462;2024-03-23T04:14:53;100708.47;;;7.02;75.26
86576;BME280;77216;53.732;9.462;2024-03-23T04:17:21;100703.84;;;6.94;75.48
86576;BME280;77216;53.732;9.462;2024-03-23T04:19:47;100700.56;;;7.02;75.41
86576;BME280;77216;53.732;9.462;2024-03-23T04:22:14;100703.63;;;7.07;75.19
86576;BME280;77216;53.732;9.462;2024-03-23T04:24:40;100699.72;;;7.01;75.06
86576;BME280;77216;53.732;9.462;2024-03-23T04:27:05;100700.94;;;6.97;75.31
86576;BME280;77216;53.732;9.462;2024-03-23T04:29:34;100709.84;;;6.96;75.22
86576;BME280;77216;53.732;9.462;2024-03-23T04:32:00;100710.81;;;6.95;75.46
86576;BME280;77216;53.732;9.462;2024-03-23T04:34:27;100708.84;;;6.87;75.36
86576;BME280;77216;53.732;9.462;2024-03-23T04:36:52;100705.88;;;6.81;75.69
86576;BME280;77216;53.732;9.462;2024-03-23T04:39:19;100699.25;;;6.86;75.66
86576;BME280;77216;53.732;9.462;2024-03-23T04:41:45;100707.16;;;6.86;75.40
86576;BME280;77216;53.732;9.462;2024-03-23T04:44:10;100697.97;;;6.81;75.51
86576;BME280;77216;53.732;9.462;2024-03-23T04:46:36;100701.31;;;6.83;75.51
86576;BME280;77216;53.732;9.462;2024-03-23T04:49:02;100698.09;;;6.79;75.68
86576;BME280;77216;53.732;9.462;2024-03-23T04:51:35;100683.94;;;6.80;75.51
86576;BME280;77216;53.732;9.462;2024-03-23T04:54:02;100692.53;;;6.82;75.48
86576;BME280;77216;53.732;9.462;2024-03-23T04:56:27;100690.88;;;6.81;75.65
86576;BME280;77216;53.732;9.462;2024-03-23T04:58:53;100694.88;;;6.76;75.65
86576;BME280;77216;53.732;9.462;2024-03-23T05:01:19;100689.88;;;6.73;75.63
86576;BME280;77216;53.732;9.462;2024-03-23T05:03:44;100692.53;;;6.73;75.41
86576;BME280;77216;53.732;9.462;2024-03-23T05:06:13;100688.06;;;6.73;75.81
86576;BME280;77216;53.732;9.462;2024-03-23T05:08:39;100678.34;;;6.74;75.61
86576;BME280;77216;53.732;9.462;2024-03-23T05:11:04;100672.25;;;6.73;75.38
86576;BME280;77216;53.732;9.462;2024-03-23T05:13:31;100681.56;;;6.77;75.21
86576;BME280;77216;53.732;9.462;2024-03-23T05:15:58;100671.97;;;6.76;75.24
86576;BME280;77216;53.732;9.462;2024-03-23T05:18:24;100668.78;;;6.73;75.27
86576;BME280;77216;53.732;9.462;2024-03-23T05:20:57;100673.19;;;6.72;75.10
86576;BME280;77216;53.732;9.462;2024-03-23T05:23:23;100675.00;;;6.72;75.09
86576;BME280;77216;53.732;9.462;2024-03-23T05:25:51;100675.53;;;6.65;75.06
86576;BME280;77216;53.732;9.462;2024-03-23T05:28:18;100669.19;;;6.68;75.14
86576;BME280;77216;53.732;9.462;2024-03-23T05:30:53;100656.81;;;6.68;75.06
86576;BME280;77216;53.732;9.462;2024-03-23T05:33:21;100663.34;;;6.74;74.89
86576;BME280;77216;53.732;9.462;2024-03-23T05:35:47;100655.31;;;6.76;74.79
86576;BME280;77216;53.732;9.462;2024-03-23T05:38:21;100673.19;;;6.72;74.65
86576;BME280;77216;53.732;9.462;2024-03-23T05:40:54;100668.78;;;6.73;74.74
86576;BME280;77216;53.732;9.462;2024-03-23T05:43:21;100664.47;;;6.72;74.63
86576;BME280;77216;53.732;9.462;2024-03-23T05:45:54;100667.88;;;6.62;75.03
86576;BME280;77216;53.732;9.462;2024-03-23T05:48:20;100659.00;;;6.63;75.01
86576;BME280;77216;53.732;9.462;2024-03-23T05:50:48;100658.75;;;6.66;75.13
86576;BME280;77216;53.732;9.462;2024-03-23T05:53:18;100652.91;;;6.63;75.01
86576;BME280;77216;53.732;9.462;2024-03-23T05:55:46;100654.44;;;6.65;75.12
86576;BME280;77216;53.732;9.462;2024-03-23T05:58:14;100660.63;;;6.55;75.40
86576;BME280;77216;53.732;9.462;2024-03-23T06:00:40;100649.84;;;6.58;75.39
86576;BME280;77216;53.732;9.462;2024-03-23T06:03:07;100654.69;;;6.62;75.08
86576;BME280;77216;53.732;9.462;2024-03-23T06:05:32;100659.97;;;6.62;75.17
86576;BME280;77216;53.732;9.462;2024-03-23T06:07:58;100662.16;;;6.57;74.94
86576;BME280;77216;53.732;9.462;2024-03-23T06:10:24;100652.31;;;6.59;74.85
86576;BME280;77216;53.732;9.462;2024-03-23T06:12:50;100643.03;;;6.55;75.17
86576;BME280;77216;53.732;9.462;2024-03-23T06:15:18;100653.28;;;6.58;74.75
86576;BME280;77216;53.732;9.462;2024-03-23T06:17:46;100646.59;;;6.54;75.13
86576;BME280;77216;53.732;9.462;2024-03-23T06:20:12;100639.91;;;6.50;75.38
86576;BME280;77216;53.732;9.462;2024-03-23T06:22:38;100647.13;;;6.48;75.24
86576;BME280;77216;53.732;9.462;2024-03-23T06:25:05;100643.78;;;6.46;75.36
86576;BME280;77216;53.732;9.462;2024-03-23T06:27:30;100653.25;;;6.49;75.42
86576;BME280;77216;53.732;9.462;2024-03-23T06:29:57;100640.63;;;6.52;75.24
86576;BME280;77216;53.732;9.462;2024-03-23T06:32:23;100639.91;;;6.50;75.33
86576;BME280;77216;53.732;9.462;2024-03-23T06:34:49;100646.28;;;6.47;75.13
86576;BME280;77216;53.732;9.462;2024-03-23T06:37:15;100640.78;;;6.51;75.24
86576;BME280;77216;53.732;9.462;2024-03-23T06:39:41;100644.75;;;6.45;75.12
86576;BME280;77216;53.732;9.462;2024-03-23T06:42:07;100645.59;;;6.45;75.18
86576;BME280;77216;53.732;9.462;2024-03-23T06:44:33;100648.34;;;6.44;75.12
86576;BME280;77216;53.732;9.462;2024-03-23T06:46:59;100649.06;;;6.46;75.26
86576;BME280;77216;53.732;9.462;2024-03-23T06:49:24;100652.41;;;6.48;75.10
86576;BME280;77216;53.732;9.462;2024-03-23T06:51:51;100648.78;;;6.49;75.43
86576;BME280;77216;53.732;9.462;2024-03-23T06:54:17;100650.72;;;6.47;75.45
86576;BME280;77216;53.732;9.462;2024-03-23T06:56:45;100651.31;;;6.51;75.23
86576;BME280;77216;53.732;9.462;2024-03-23T06:59:11;100653.91;;;6.41;75.67
86576;BME280;77216;53.732;9.462;2024-03-23T07:01:37;100650.72;;;6.47;75.83
86576;BME280;77216;53.732;9.462;2024-03-23T07:04:04;100655.59;;;6.52;75.78
86576;BME280;77216;53.732;9.462;2024-03-23T07:06:30;100649.13;;;6.56;75.66
86576;BME280;77216;53.732;9.462;2024-03-23T07:08:55;100639.78;;;6.52;75.90
86576;BME280;77216;53.732;9.462;2024-03-23T07:11:22;100643.03;;;6.55;75.79
86576;BME280;77216;53.732;9.462;2024-03-23T07:13:51;100634.69;;;6.60;75.90
86576;BME280;77216;53.732;9.462;2024-03-23T07:16:19;100639.72;;;6.63;75.72
86576;BME280;77216;53.732;9.462;2024-03-23T07:18:45;100638.75;;;6.64;76.20
86576;BME280;77216;53.732;9.462;2024-03-23T07:21:11;100635.44;;;6.72;76.23
86576;BME280;77216;53.732;9.462;2024-03-23T07:23:37;100642.97;;;6.76;76.15
86576;BME280;77216;53.732;9.462;2024-03-23T07:26:04;100636.06;;;6.85;75.87
86576;BME280;77216;53.732;9.462;2024-03-23T07:28:33;100633.44;;;6.85;75.51
86576;BME280;77216;53.732;9.462;2024-03-23T07:31:13;100644.97;;;6.94;75.97
86576;BME280;77216;53.732;9.462;2024-03-23T07:33:47;100647.22;;;6.98;75.71
86576;BME280;77216;53.732;9.462;2024-03-23T07:36:16;100627.53;;;7.02;75.68
86576;BME280;77216;53.732;9.462;2024-03-23T07:38:47;100633.44;;;6.95;75.76
86576;BME280;77216;53.732;9.462;2024-03-23T07:41:20;100641.50;;;6.93;76.15
86576;BME280;77216;53.732;9.462;2024-03-23T07:43:47;100635.56;;;7.01;75.97
86576;BME280;77216;53.732;9.462;2024-03-23T07:46:16;100637.97;;;7.14;75.54
86576;BME280;77216;53.732;9.462;2024-03-23T07:48:42;100625.75;;;7.13;75.15
86576;BME280;77216;53.732;9.462;2024-03-23T07:51:20;100625.41;;;6.96;75.86
86576;BME280;77216;53.732;9.462;2024-03-23T07:53:46;100624.44;;;6.97;76.28
86576;BME280;77216;53.732;9.462;2024-03-23T07:56:13;100625.03;;;7.10;75.58
86576;BME280;77216;53.732;9.462;2024-03-23T07:58:41;100625.50;;;7.35;75.07
86576;BME280;77216;53.732;9.462;2024-03-23T08:01:11;100623.84;;;7.44;74.94
86576;BME280;77216;53.732;9.462;2024-03-23T08:03:39;100620.94;;;7.37;74.67
86576;BME280;77216;53.732;9.462;2024-03-23T08:06:19;100618.31;;;7.47;74.48
86576;BME280;77216;53.732;9.462;2024-03-23T08:08:50;100623.03;;;7.53;74.00
86576;BME280;77216;53.732;9.462;2024-03-23T08:11:19;100619.41;;;7.64;73.45
86576;BME280;77216;53.732;9.462;2024-03-23T08:13:45;100611.66;;;7.72;73.55
86576;BME280;77216;53.732;9.462;2024-03-23T08:16:10;100610.53;;;7.65;73.39
86576;BME280;77216;53.732;9.462;2024-03-23T08:18:37;100611.78;;;7.70;73.20
86576;BME280;77216;53.732;9.462;2024-03-23T08:21:04;100611.06;;;7.68;73.07
86576;BME280;77216;53.732;9.462;2024-03-23T08:23:31;100605.09;;;7.76;73.97
86576;BME280;77216;53.732;9.462;2024-03-23T08:26:14;100603.84;;;7.80;72.36
86576;BME280;77216;53.732;9.462;2024-03-23T08:28:40;100611.06;;;7.88;72.18
86576;BME280;77216;53.732;9.462;2024-03-23T08:31:08;100607.19;;;7.82;71.86
86576;BME280;77216;53.732;9.462;2024-03-23T08:33:35;100609.72;;;7.74;71.61
86576;BME280;77216;53.732;9.462;2024-03-23T08:36:04;100616.53;;;7.86;71.63
86576;BME280;77216;53.732;9.462;2024-03-23T08:38:30;100606.50;;;7.90;71.37
86576;BME280;77216;53.732;9.462;2024-03-23T08:40:59;100601.91;;;7.92;71.82
86576;BME280;77216;53.732;9.462;2024-03-23T08:43:25;100596.31;;;8.05;71.90
86576;BME280;77216;53.732;9.462;2024-03-23T08:45:52;100601.72;;;8.23;70.71
86576;BME280;77216;53.732;9.462;2024-03-23T08:48:19;100597.03;;;8.07;69.32
86576;BME280;77216;53.732;9.462;2024-03-23T08:50:46;100590.31;;;8.22;70.88
86576;BME280;77216;53.732;9.462;2024-03-23T08:53:12;100588.19;;;8.26;70.10
86576;BME280;77216;53.732;9.462;2024-03-23T08:55:38;100598.53;;;8.19;68.20
86576;BME280;77216;53.732;9.462;2024-03-23T08:58:04;100591.44;;;8.10;68.24
86576;BME280;77216;53.732;9.462;2024-03-23T09:00:30;100582.81;;;8.08;67.82
86576;BME280;77216;53.732;9.462;2024-03-23T09:02:58;100585.41;;;8.27;67.85
86576;BME280;77216;53.732;9.462;2024-03-23T09:05:23;100577.06;;;8.32;67.62
86576;BME280;77216;53.732;9.462;2024-03-23T09:07:49;100587.38;;;8.25;67.01
86576;BME280;77216;53.732;9.462;2024-03-23T09:10:16;100580.16;;;8.17;67.08
86576;BME280;77216;53.732;9.462;2024-03-23T09:12:41;100586.53;;;8.25;66.64
86576;BME280;77216;53.732;9.462;2024-03-23T09:15:09;100581.13;;;8.16;66.99
86576;BME280;77216;53.732;9.462;2024-03-23T09:17:35;100576.50;;;8.28;66.48
86576;BME280;77216;53.732;9.462;2024-03-23T09:20:00;100571.22;;;8.28;65.81
86576;BME280;77216;53.732;9.462;2024-03-23T09:22:26;100578.28;;;8.37;65.24
86576;BME280;77216;53.732;9.462;2024-03-23T09:24:51;100587.03;;;8.38;64.31
86576;BME280;77216;53.732;9.462;2024-03-23T09:27:17;100586.53;;;8.44;64.85
86576;BME280;77216;53.732;9.462;2024-03-23T09:29:42;100578.06;;;8.31;63.15
86576;BME280;77216;53.732;9.462;2024-03-23T09:32:08;100580.13;;;8.27;64.67
86576;BME280;77216;53.732;9.462;2024-03-23T09:34:34;100585.00;;;8.32;64.29
86576;BME280;77216;53.732;9.462;2024-03-23T09:37:00;100575.44;;;8.21;61.76
86576;BME280;77216;53.732;9.462;2024-03-23T09:39:25;100579.19;;;8.18;61.64
86576;BME280;77216;53.732;9.462;2024-03-23T09:41:56;100583.91;;;8.25;59.35
86576;BME280;77216;53.732;9.462;2024-03-23T09:44:25;100569.44;;;8.19;60.01
86576;BME280;77216;53.732;9.462;2024-03-23T09:46:54;100574.53;;;8.30;61.55
86576;BME280;77216;53.732;9.462;2024-03-23T09:49:20;100577.47;;;8.37;61.90
86576;BME280;77216;53.732;9.462;2024-03-23T09:51:46;100609.50;;;8.44;61.25
86576;BME280;77216;53.732;9.462;2024-03-23T09:54:12;100569.31;;;8.58;61.68
86576;BME280;77216;53.732;9.462;2024-03-23T09:56:38;100565.13;;;8.65;61.45
86576;BME280;77216;53.732;9.462;2024-03-23T09:59:06;100572.19;;;8.74;59.51
86576;BME280;77216;53.732;9.462;2024-03-23T10:01:33;100561.31;;;8.77;60.75
86576;BME280;77216;53.732;9.462;2024-03-23T10:03:59;100581.81;;;9.03;59.51
86576;BME280;77216;53.732;9.462;2024-03-23T10:06:26;100581.56;;;8.96;60.30
86576;BME280;77216;53.732;9.462;2024-03-23T10:08:53;100570.13;;;8.96;59.16
86576;BME280;77216;53.732;9.462;2024-03-23T10:11:20;100567.69;;;8.85;59.65
86576;BME280;77216;53.732;9.462;2024-03-23T10:13:47;100551.78;;;8.85;60.18
86576;BME280;77216;53.732;9.462;2024-03-23T10:16:21;100552.28;;;8.98;59.67
86576;BME280;77216;53.732;9.462;2024-03-23T10:18:47;100548.91;;;9.06;59.03
86576;BME280;77216;53.732;9.462;2024-03-23T10:21:14;100549.41;;;9.09;59.17
86576;BME280;77216;53.732;9.462;2024-03-23T10:23:41;100559.22;;;8.81;60.60
86576;BME280;77216;53.732;9.462;2024-03-23T10:31:18;100551.31;;;8.99;60.04
86576;BME280;77216;53.732;9.462;2024-03-23T10:33:47;100547.53;;;9.01;59.79
86576;BME280;77216;53.732;9.462;2024-03-23T10:36:13;100569.78;;;9.26;59.79
86576;BME280;77216;53.732;9.462;2024-03-23T10:38:43;100554.00;;;9.35;57.58
86576;BME280;77216;53.732;9.462;2024-03-23T10:41:12;100560.56;;;9.31;58.26
86576;BME280;77216;53.732;9.462;2024-03-23T10:43:38;100565.56;;;9.16;60.23
86576;BME280;77216;53.732;9.462;2024-03-23T10:48:40;100554.66;;;8.73;60.81
86576;BME280;77216;53.732;9.462;2024-03-23T10:51:10;100552.84;;;8.36;62.08
86576;BME280;77216;53.732;9.462;2024-03-23T10:53:39;100552.44;;;8.31;63.33
86576;BME280;77216;53.732;9.462;2024-03-23T10:56:06;100537.84;;;8.17;63.18
86576;BME280;77216;53.732;9.462;2024-03-23T10:58:38;100530.59;;;8.29;64.98
86576;BME280;77216;53.732;9.462;2024-03-23T11:01:03;100537.78;;;8.37;64.68
86576;BME280;77216;53.732;9.462;2024-03-23T11:06:02;100537.19;;;8.53;63.23
86576;BME280;77216;53.732;9.462;2024-03-23T11:08:39;100560.19;;;8.43;62.92
86576;BME280;77216;53.732;9.462;2024-03-23T11:11:14;100540.03;;;8.32;64.29
86576;BME280;77216;53.732;9.462;2024-03-23T11:13:43;100551.91;;;8.08;65.45
86576;BME280;77216;53.732;9.462;2024-03-23T11:16:16;100582.28;;;7.94;64.51
86576;BME280;77216;53.732;9.462;2024-03-23T11:18:44;100627.34;;;7.44;67.37
86576;BME280;77216;53.732;9.462;2024-03-23T11:21:11;100575.00;;;6.99;68.77
86576;BME280;77216;53.732;9.462;2024-03-23T11:24:13;100550.53;;;6.78;69.03
86576;BME280;77216;53.732;9.462;2024-03-23T11:26:40;100535.69;;;6.96;68.34
86576;BME280;77216;53.732;9.462;2024-03-23T11:29:12;100538.75;;;7.01;68.28
86576;BME280;77216;53.732;9.462;2024-03-23T11:31:38;100538.88;;;6.90;67.96
86576;BME280;77216;53.732;9.462;2024-03-23T11:34:06;100535.41;;;6.99;67.21
86576;BME280;77216;53.732;9.462;2024-03-23T11:36:32;100537.69;;;7.43;68.07
86576;BME280;77216;53.732;9.462;2024-03-23T11:38:58;100527.38;;;7.69;65.93
86576;BME280;77216;53.732;9.462;2024-03-23T11:41:23;100521.50;;;7.94;66.27
86576;BME280;77216;53.732;9.462;2024-03-23T11:43:51;100522.56;;;8.21;66.31
86576;BME280;77216;53.732;9.462;2024-03-23T11:46:22;100519.72;;;8.32;65.72
86576;BME280;77216;53.732;9.462;2024-03-23T11:48:51;100528.81;;;8.57;65.71
86576;BME280;77216;53.732;9.462;2024-03-23T11:51:19;100532.94;;;8.42;64.01
86576;BME280;77216;53.732;9.462;2024-03-23T11:53:45;100535.50;;;8.61;63.88
86576;BME280;77216;53.732;9.462;2024-03-23T11:56:11;100560.34;;;8.51;60.56
86576;BME280;77216;53.732;9.462;2024-03-23T11:58:37;100541.19;;;8.19;61.68
86576;BME280;77216;53.732;9.462;2024-03-23T12:01:03;100543.19;;;7.88;63.47
86576;BME280;77216;53.732;9.462;2024-03-23T12:03:31;100540.16;;;7.73;64.92
86576;BME280;77216;53.732;9.462;2024-03-23T12:06:02;100555.47;;;7.50;64.72
86576;BME280;77216;53.732;9.462;2024-03-23T12:08:37;100552.53;;;7.34;65.08
86576;BME280;77216;53.732;9.462;2024-03-23T12:11:11;100557.38;;;7.09;65.86
86576;BME280;77216;53.732;9.462;2024-03-23T12:13:37;100542.25;;;7.21;66.15
86576;BME280;77216;53.732;9.462;2024-03-23T12:16:13;100525.88;;;7.37;65.86
86576;BME280;77216;53.732;9.462;2024-03-23T12:18:41;100527.41;;;7.59;64.73
86576;BME280;77216;53.732;9.462;2024-03-23T12:21:07;100524.53;;;8.09;65.20
86576;BME280;77216;53.732;9.462;2024-03-23T12:23:33;100523.00;;;8.54;61.96
86576;BME280;77216;53.732;9.462;2024-03-23T12:25:59;100518.22;;;8.85;61.59
86576;BME280;77216;53.732;9.462;2024-03-23T12:28:25;100521.28;;;9.08;60.67
86576;BME280;77216;53.732;9.462;2024-03-23T12:30:51;100522.78;;;8.93;59.56
86576;BME280;77216;53.732;9.462;2024-03-23T12:33:18;100523.88;;;8.72;60.72
86576;BME280;77216;53.732;9.462;2024-03-23T12:35:47;100519.47;;;8.91;62.44
86576;BME280;77216;53.732;9.462;2024-03-23T12:38:14;100525.69;;;9.17;60.59
86576;BME280;77216;53.732;9.462;2024-03-23T12:40:40;100520.03;;;9.30;61.71
86576;BME280;77216;53.732;9.462;2024-03-23T12:43:06;100523.72;;;9.55;60.91
86576;BME280;77216;53.732;9.462;2024-03-23T12:45:33;100533.25;;;9.48;60.08
86576;BME280;77216;53.732;9.462;2024-03-23T12:47:58;100561.03;;;9.26;60.66
86576;BME280;77216;53.732;9.462;2024-03-23T12:50:24;100572.19;;;8.74;60.81
86576;BME280;77216;53.732;9.462;2024-03-23T12:52:52;100541.94;;;7.92;61.68
86576;BME280;77216;53.732;9.462;2024-03-23T12:55:19;100571.75;;;7.56;63.46
86576;BME280;77216;53.732;9.462;2024-03-23T12:57:53;100596.44;;;7.16;65.91
86576;BME280;77216;53.732;9.462;2024-03-23T13:00:23;100556.47;;;6.70;66.64
86576;BME280;77216;53.732;9.462;2024-03-23T13:02:51;100549.66;;;6.77;66.38
86576;BME280;77216;53.732;9.462;2024-03-23T13:05:25;100537.09;;;7.00;66.37
86576;BME280;77216;53.732;9.462;2024-03-23T13:07:52;100541.97;;;7.05;64.96
86576;BME280;77216;53.732;9.462;2024-03-23T13:10:22;100538.38;;;7.16;65.87
86576;BME280;77216;53.732;9.462;2024-03-23T13:12:49;100530.31;;;7.27;65.27
86576;BME280;77216;53.732;9.462;2024-03-23T13:15:15;100532.13;;;7.36;64.91
86576;BME280;77216;53.732;9.462;2024-03-23T13:17:42;100526.97;;;7.64;64.72
86576;BME280;77216;53.732;9.462;2024-03-23T13:20:08;100518.31;;;7.91;65.34
86576;BME280;77216;53.732;9.462;2024-03-23T13:22:38;100521.81;;;8.29;64.95
86576;BME280;77216;53.732;9.462;2024-03-23T13:25:04;100526.13;;;8.39;65.48
86576;BME280;77216;53.732;9.462;2024-03-23T13:27:30;100521.91;;;8.37;66.10
86576;BME280;77216;53.732;9.462;2024-03-23T13:29:55;100512.47;;;8.44;64.26
86576;BME280;77216;53.732;9.462;2024-03-23T13:32:21;100521.22;;;8.45;63.68
86576;BME280;77216;53.732;9.462;2024-03-23T13:34:47;100528.84;;;8.48;63.92
86576;BME280;77216;53.732;9.462;2024-03-23T13:37:18;100523.47;;;8.30;64.50
86576;BME280;77216;53.732;9.462;2024-03-23T13:39:49;100538.78;;;8.36;65.93
86576;BME280;77216;53.732;9.462;2024-03-23T13:42:17;100549.06;;;8.39;64.70
86576;BME280;77216;53.732;9.462;2024-03-23T13:44:45;100554.41;;;8.19;64.00
86576;BME280;77216;53.732;9.462;2024-03-23T13:47:11;100540.22;;;8.11;63.19
86576;BME280;77216;53.732;9.462;2024-03-23T13:49:36;100548.88;;;8.03;64.43
86576;BME280;77216;53.732;9.462;2024-03-23T13:52:01;100533.13;;;8.21;65.05
86576;BME280;77216;53.732;9.462;2024-03-23T13:54:27;100528.25;;;8.26;62.24
86576;BME280;77216;53.732;9.462;2024-03-23T13:56:55;100534.75;;;8.42;63.41
86576;BME280;77216;53.732;9.462;2024-03-23T13:59:24;100543.63;;;8.40;62.32
86576;BME280;77216;53.732;9.462;2024-03-23T14:01:52;100542.00;;;8.67;62.62
86576;BME280;77216;53.732;9.462;2024-03-23T14:04:18;100536.91;;;8.83;61.18